Terminal Aerodrome Forecast
Issued by NWS Quad Cities IA IL

Current Version | Previous Version | Text Only | Print | Product List | Glossary On
Versions: 1 2 3 4 5 6 7 8 9 10 11 12 13 14 15 16 17 18 19 20 21 22 23 24 25 26 27 28 29 30 31 32 33 34 35 36
000
FTUS43 KDVN 290520
TAFMLI
TAF
KMLI 290520Z 2906/3006 02006KT 6SM BR OVC006
     FM291000 03011KT P6SM BKN015 OVC030
     FM291300 03013KT P6SM OVC040
     FM291700 04016G23KT 3SM RA BR OVC012
     FM292300 05015G22KT P6SM OVC015=

USA.gov is the U.S. government's official web portal to all federal, state and local government web resources and services.